createdAt,value
2022-11-30T00:00:56.052Z,71.97
2022-11-30T00:03:24.002Z,66.97
2022-11-30T00:05:51.375Z,69.53
2022-11-30T00:08:18.747Z,70.32
2022-11-30T00:10:46.414Z,72.40
2022-11-30T00:13:13.775Z,74.38
2022-11-30T00:15:42.464Z,78.13
2022-11-30T00:18:10.130Z,84.18
2022-11-30T00:20:37.492Z,80.78
2022-11-30T00:23:04.770Z,86.57
2022-11-30T00:25:32.181Z,80.50
2022-11-30T00:28:01.300Z,87.38
2022-11-30T00:30:28.788Z,81.88
2022-11-30T00:32:58.599Z,85.47
2022-11-30T00:35:25.927Z,88.30
2022-11-30T00:37:53.294Z,83.57
2022-11-30T00:40:20.583Z,77.97
2022-11-30T00:42:47.888Z,82.47
2022-11-30T00:45:15.466Z,87.10
2022-11-30T00:47:42.762Z,82.65
2022-11-30T00:50:12.141Z,84.93
2022-11-30T00:52:39.476Z,89.20
2022-11-30T00:55:07.327Z,90.72
2022-11-30T00:57:34.720Z,91.53
2022-11-30T01:00:02.091Z,85.53
2022-11-30T01:02:29.745Z,93.57
2022-11-30T01:04:57.038Z,98.97
2022-11-30T01:07:25.784Z,104.60
2022-11-30T01:09:53.129Z,93.55
2022-11-30T01:12:20.471Z,102.50
2022-11-30T01:14:47.959Z,95.60
2022-11-30T01:17:15.501Z,110.45
2022-11-30T01:19:42.751Z,111.15
2022-11-30T01:22:10.087Z,123.60
2022-11-30T01:24:38.749Z,131.77
2022-11-30T01:27:06.120Z,137.35
2022-11-30T01:29:33.487Z,128.65
2022-11-30T01:32:00.762Z,121.85
2022-11-30T01:34:28.139Z,118.72
2022-11-30T01:36:55.445Z,121.85
2022-11-30T01:39:24.215Z,125.88
2022-11-30T01:41:54.466Z,127.90
2022-11-30T01:44:49.089Z,130.65
2022-11-30T01:47:16.625Z,131.40
2022-11-30T01:49:45.342Z,133.95
2022-11-30T01:52:14.326Z,141.55
2022-11-30T01:54:43.962Z,130.68
2022-11-30T01:57:15.463Z,122.00
2022-11-30T01:59:42.855Z,141.18
2022-11-30T02:02:10.328Z,139.38
2022-11-30T02:04:39.038Z,122.70
2022-11-30T02:07:06.951Z,133.68
2022-11-30T02:09:39.004Z,140.98
2022-11-30T02:12:08.779Z,141.90
2022-11-30T02:14:40.471Z,132.95
2022-11-30T02:17:12.906Z,128.48
2022-11-30T02:19:58.191Z,117.22
2022-11-30T02:24:57.992Z,112.93
2022-11-30T02:27:31.767Z,103.93
2022-11-30T02:30:02.699Z,104.33
2022-11-30T02:32:32.608Z,104.88
2022-11-30T02:35:01.425Z,96.55
2022-11-30T02:37:29.595Z,100.13
2022-11-30T02:39:56.978Z,90.70
2022-11-30T02:42:24.279Z,97.10
2022-11-30T02:44:53.095Z,87.97
2022-11-30T02:47:24.426Z,88.55
2022-11-30T02:49:55.010Z,86.25
2022-11-30T02:52:24.876Z,86.00
2022-11-30T02:54:52.285Z,90.18
2022-11-30T02:57:19.639Z,86.38
2022-11-30T02:59:46.992Z,88.65
2022-11-30T03:02:14.336Z,102.22
2022-11-30T03:04:43.022Z,94.20
2022-11-30T03:07:10.355Z,102.95
2022-11-30T03:09:37.654Z,100.88
2022-11-30T03:12:05.091Z,95.25
2022-11-30T03:14:32.418Z,94.65
2022-11-30T03:16:59.750Z,109.45
2022-11-30T03:19:27.052Z,104.43
2022-11-30T03:21:55.758Z,115.45
2022-11-30T03:24:23.061Z,119.85
2022-11-30T03:26:50.349Z,114.88
2022-11-30T03:29:17.691Z,122.18
2022-11-30T03:31:44.997Z,100.13
2022-11-30T03:34:12.296Z,128.82
2022-11-30T03:36:39.601Z,119.13
2022-11-30T03:39:09.322Z,120.72
2022-11-30T03:41:36.724Z,119.90
2022-11-30T03:44:04.089Z,117.35
2022-11-30T03:46:31.430Z,125.13
2022-11-30T03:48:58.777Z,125.50
2022-11-30T03:51:26.175Z,122.10
2022-11-30T03:53:53.465Z,113.90
2022-11-30T03:56:22.155Z,127.53
2022-11-30T03:58:49.408Z,126.05
2022-11-30T04:01:17.565Z,128.15
2022-11-30T04:03:45.027Z,126.47
2022-11-30T04:06:13.423Z,131.18
2022-11-30T04:08:40.795Z,129.93
2022-11-30T04:11:08.364Z,126.15
2022-11-30T04:13:37.730Z,135.60
2022-11-30T04:16:05.737Z,159.88
2022-11-30T04:18:33.801Z,172.65
2022-11-30T04:21:01.604Z,244.02
2022-11-30T04:23:30.554Z,153.48
2022-11-30T04:25:57.927Z,164.48
2022-11-30T04:28:25.269Z,162.63
2022-11-30T04:30:54.695Z,158.13
2022-11-30T04:33:22.113Z,185.55
2022-11-30T04:35:50.841Z,202.55
2022-11-30T04:38:18.212Z,198.10
2022-11-30T04:40:45.761Z,173.65
2022-11-30T04:43:13.535Z,174.25
2022-11-30T04:45:40.970Z,180.95
2022-11-30T04:48:09.631Z,184.18
2022-11-30T04:50:36.969Z,198.90
2022-11-30T04:53:04.599Z,167.32
2022-11-30T04:55:32.035Z,165.85
2022-11-30T04:57:59.332Z,170.20
2022-11-30T05:00:26.583Z,165.02
2022-11-30T05:02:53.900Z,169.43
2022-11-30T05:05:22.584Z,149.35
2022-11-30T05:07:50.259Z,136.07
2022-11-30T05:10:17.759Z,137.68
2022-11-30T05:12:45.179Z,132.05
2022-11-30T05:15:12.494Z,132.20
2022-11-30T05:17:39.806Z,126.82
2022-11-30T05:20:07.743Z,132.15
2022-11-30T05:22:36.425Z,122.18
2022-11-30T05:25:03.780Z,116.78
2022-11-30T05:27:31.080Z,120.88
2022-11-30T05:29:58.375Z,131.30
2022-11-30T05:32:25.694Z,131.90
2022-11-30T05:34:53.367Z,150.85
2022-11-30T05:37:21.153Z,171.73
2022-11-30T05:39:49.775Z,147.05
2022-11-30T05:42:17.135Z,156.63
2022-11-30T05:44:45.138Z,130.60
2022-11-30T05:47:12.945Z,121.70
2022-11-30T05:49:40.256Z,119.97
2022-11-30T05:52:07.549Z,122.80
2022-11-30T05:54:35.110Z,118.65
2022-11-30T05:57:05.212Z,125.30
2022-11-30T05:59:32.570Z,131.50
2022-11-30T06:02:00.113Z,113.13
2022-11-30T06:04:27.662Z,117.43
2022-11-30T06:06:55.441Z,112.95
2022-11-30T06:09:22.917Z,109.57
2022-11-30T06:11:50.268Z,100.18
2022-11-30T06:14:18.968Z,97.75
2022-11-30T06:16:47.152Z,105.60
2022-11-30T06:19:14.511Z,94.70
2022-11-30T06:21:41.848Z,83.95
2022-11-30T06:24:09.960Z,89.03
2022-11-30T06:26:37.275Z,82.18
2022-11-30T06:29:04.591Z,77.43
2022-11-30T06:31:33.302Z,73.40
2022-11-30T06:34:00.644Z,78.15
2022-11-30T06:36:34.222Z,81.40
2022-11-30T06:39:03.301Z,69.15
2022-11-30T06:41:30.671Z,81.72
2022-11-30T06:43:57.995Z,70.78
2022-11-30T06:46:26.809Z,67.65
2022-11-30T06:48:55.574Z,70.60
2022-11-30T06:51:22.868Z,65.72
2022-11-30T06:53:50.163Z,71.32
2022-11-30T06:56:17.449Z,60.20
2022-11-30T06:58:44.779Z,64.13
2022-11-30T07:01:12.787Z,62.38
2022-11-30T07:03:40.392Z,58.90
2022-11-30T07:06:10.148Z,61.42
2022-11-30T07:08:37.776Z,62.53
2022-11-30T07:11:05.266Z,60.50
2022-11-30T07:13:32.574Z,63.75
2022-11-30T07:15:59.846Z,63.80
2022-11-30T07:18:31.643Z,65.43
2022-11-30T07:20:59.791Z,62.80
2022-11-30T07:23:49.484Z,60.00
2022-11-30T07:26:19.871Z,65.85
2022-11-30T07:28:47.497Z,66.88
2022-11-30T07:31:16.677Z,74.32
2022-11-30T07:33:44.602Z,70.13
2022-11-30T07:36:12.160Z,68.07
2022-11-30T07:38:40.810Z,66.38
2022-11-30T07:41:08.135Z,68.55
2022-11-30T07:43:35.831Z,64.82
2022-11-30T07:46:03.652Z,67.97
2022-11-30T07:48:31.231Z,62.50
2022-11-30T07:51:02.946Z,66.32
2022-11-30T07:53:31.151Z,66.82
2022-11-30T07:56:03.608Z,72.13
2022-11-30T07:58:31.601Z,69.57
2022-11-30T08:01:02.151Z,71.70
2022-11-30T08:03:33.701Z,69.07
2022-11-30T08:06:04.686Z,68.03
2022-11-30T08:08:32.928Z,65.63
2022-11-30T08:11:00.873Z,72.38
2022-11-30T08:13:29.750Z,71.35
2022-11-30T08:15:57.122Z,69.70
2022-11-30T08:18:24.516Z,73.57
2022-11-30T08:20:57.036Z,72.00
2022-11-30T08:23:24.372Z,67.35
2022-11-30T08:25:51.710Z,69.50
2022-11-30T08:28:18.987Z,69.22
2022-11-30T08:30:48.040Z,71.05
2022-11-30T08:33:15.406Z,68.90
2022-11-30T08:35:42.926Z,68.47
2022-11-30T08:38:10.251Z,66.03
2022-11-30T08:40:37.575Z,67.20
2022-11-30T08:43:04.898Z,63.95
2022-11-30T08:45:32.183Z,63.00
2022-11-30T08:48:00.812Z,64.10
2022-11-30T08:50:28.091Z,145.10
2022-11-30T08:52:56.128Z,61.20
2022-11-30T08:55:23.627Z,59.58
2022-11-30T08:57:50.905Z,61.60
2022-11-30T09:00:19.408Z,64.32
2022-11-30T09:02:47.186Z,65.90
2022-11-30T09:05:16.071Z,303.85
2022-11-30T09:07:43.496Z,69.50
2022-11-30T09:10:11.334Z,60.97
2022-11-30T09:12:39.556Z,59.47
2022-11-30T09:15:07.516Z,60.95
2022-11-30T09:17:34.850Z,54.58
2022-11-30T09:20:02.179Z,57.80
2022-11-30T09:22:30.791Z,60.25
2022-11-30T09:24:58.095Z,55.63
2022-11-30T09:27:30.114Z,67.32
2022-11-30T09:29:58.053Z,66.03
2022-11-30T09:32:25.373Z,60.97
2022-11-30T09:34:53.143Z,56.97
2022-11-30T09:37:20.875Z,61.13
2022-11-30T09:39:49.613Z,57.70
2022-11-30T09:42:25.645Z,55.25
2022-11-30T09:44:57.249Z,53.30
2022-11-30T09:47:32.182Z,57.47
2022-11-30T09:50:02.456Z,59.10
2022-11-30T09:52:34.068Z,56.15
2022-11-30T09:55:06.855Z,55.00
2022-11-30T09:57:35.552Z,57.33
2022-11-30T10:00:04.952Z,58.47
2022-11-30T10:02:33.252Z,57.63
2022-11-30T10:05:01.352Z,60.47
2022-11-30T10:07:37.280Z,61.40
2022-11-30T10:13:01.164Z,60.60
2022-11-30T10:15:33.532Z,59.28
2022-11-30T10:18:03.899Z,66.60
2022-11-30T10:20:49.151Z,65.43
2022-11-30T10:25:50.956Z,69.53
2022-11-30T10:28:45.494Z,68.40
2022-11-30T10:31:09.754Z,73.07
2022-11-30T10:33:39.784Z,66.50
2022-11-30T10:36:11.303Z,80.25
2022-11-30T10:38:41.872Z,152.00
2022-11-30T10:41:12.618Z,81.90
2022-11-30T10:43:43.396Z,68.80
2022-11-30T10:46:17.320Z,76.03
2022-11-30T10:48:46.896Z,72.20
2022-11-30T10:51:14.268Z,70.43
2022-11-30T10:53:41.569Z,76.57
2022-11-30T10:56:11.902Z,69.93
2022-11-30T10:58:40.346Z,69.07
2022-11-30T11:01:08.498Z,76.25
2022-11-30T11:03:36.162Z,71.75
2022-11-30T11:06:06.433Z,68.18
2022-11-30T11:08:33.959Z,70.13
2022-11-30T11:11:01.619Z,70.95
2022-11-30T11:13:40.512Z,74.70
2022-11-30T11:16:09.057Z,71.45
2022-11-30T11:18:36.926Z,68.22
2022-11-30T11:21:06.952Z,66.65
2022-11-30T11:23:36.240Z,65.15
2022-11-30T11:26:03.742Z,158.23
2022-11-30T11:28:31.333Z,75.95
2022-11-30T11:31:00.038Z,67.68
2022-11-30T11:33:28.174Z,64.97
2022-11-30T11:35:56.526Z,71.43
2022-11-30T11:38:25.663Z,71.70
2022-11-30T11:40:53.711Z,81.25
2022-11-30T11:43:21.996Z,73.75
2022-11-30T11:45:52.036Z,74.22
2022-11-30T11:48:29.566Z,85.18
2022-11-30T11:51:08.755Z,87.53
2022-11-30T11:53:47.433Z,89.78
2022-11-30T11:56:21.436Z,86.63
2022-11-30T11:58:51.069Z,88.22
2022-11-30T12:01:39.917Z,87.43
2022-11-30T12:04:28.577Z,92.93
2022-11-30T12:06:56.667Z,90.95
2022-11-30T12:09:26.308Z,96.82
2022-11-30T12:11:53.681Z,91.70
2022-11-30T12:14:21.008Z,94.60
2022-11-30T12:17:00.296Z,96.95
2022-11-30T12:19:34.521Z,92.15
2022-11-30T12:22:07.751Z,91.80
2022-11-30T12:24:41.712Z,96.70
2022-11-30T12:27:14.345Z,91.90
2022-11-30T12:29:46.693Z,97.35
2022-11-30T12:32:19.771Z,92.13
2022-11-30T12:34:56.545Z,97.78
2022-11-30T12:37:31.247Z,92.03
2022-11-30T12:42:28.695Z,87.22
2022-11-30T12:44:59.351Z,82.63
2022-11-30T12:47:31.884Z,95.63
2022-11-30T12:50:11.299Z,86.80
2022-11-30T12:52:44.659Z,94.63
2022-11-30T12:55:18.259Z,89.00
2022-11-30T12:57:48.525Z,90.22
2022-11-30T13:00:19.722Z,93.38
2022-11-30T13:02:56.814Z,86.38
2022-11-30T13:05:28.586Z,84.82
2022-11-30T13:07:59.016Z,85.30
2022-11-30T13:10:29.313Z,88.85
2022-11-30T13:12:57.956Z,90.25
2022-11-30T13:15:26.758Z,85.25
2022-11-30T13:17:55.035Z,82.10
2022-11-30T13:20:24.872Z,86.25
2022-11-30T13:22:56.829Z,91.00
2022-11-30T13:26:05.744Z,85.70
2022-11-30T13:28:21.132Z,87.93
2022-11-30T13:30:50.888Z,96.03
2022-11-30T13:33:36.765Z,81.80
2022-11-30T13:36:05.403Z,84.63
2022-11-30T13:38:37.515Z,80.57
2022-11-30T13:41:06.298Z,87.53
2022-11-30T13:43:35.936Z,78.28
2022-11-30T13:46:07.653Z,86.88
2022-11-30T13:48:38.202Z,85.55
2022-11-30T13:51:05.775Z,82.30
2022-11-30T13:53:37.007Z,80.80
2022-11-30T13:56:06.520Z,82.00
2022-11-30T13:58:34.226Z,85.53
2022-11-30T14:01:16.572Z,83.63
2022-11-30T14:03:47.966Z,79.28
2022-11-30T14:06:36.012Z,80.13
2022-11-30T14:09:04.963Z,79.30
2022-11-30T14:11:42.353Z,83.47
2022-11-30T14:14:28.753Z,84.55
2022-11-30T14:16:57.648Z,79.15
2022-11-30T14:19:25.096Z,83.25
2022-11-30T14:21:52.696Z,80.30
2022-11-30T14:24:22.198Z,86.22
2022-11-30T14:26:50.926Z,82.82
2022-11-30T14:29:20.423Z,81.38
2022-11-30T14:31:52.625Z,82.43
2022-11-30T14:34:22.250Z,95.18
2022-11-30T14:36:51.562Z,84.93
2022-11-30T14:39:27.676Z,82.97
2022-11-30T14:41:55.114Z,93.47
2022-11-30T14:44:22.457Z,86.63
2022-11-30T14:46:49.971Z,90.22
2022-11-30T14:49:18.507Z,92.35
2022-11-30T14:51:47.426Z,96.30
2022-11-30T14:54:23.394Z,99.32
2022-11-30T14:56:53.886Z,98.05
2022-11-30T14:59:27.276Z,89.97
2022-11-30T15:01:56.759Z,86.20
2022-11-30T15:04:27.252Z,90.43
2022-11-30T15:06:55.324Z,89.93
2022-11-30T15:09:25.241Z,89.82
2022-11-30T15:11:54.130Z,96.88
2022-11-30T15:14:21.830Z,90.93
2022-11-30T15:16:50.704Z,93.60
2022-11-30T15:19:22.543Z,92.78
2022-11-30T15:21:50.110Z,100.32
2022-11-30T15:24:17.802Z,95.68
2022-11-30T15:26:49.764Z,93.35
2022-11-30T15:29:22.730Z,88.53
2022-11-30T15:31:52.181Z,92.15
2022-11-30T15:34:20.429Z,94.68
2022-11-30T15:36:48.149Z,93.50
2022-11-30T15:39:18.791Z,98.18
2022-11-30T15:41:46.137Z,109.65
2022-11-30T15:44:25.614Z,105.68
2022-11-30T15:46:57.202Z,117.10
2022-11-30T15:49:25.639Z,111.53
2022-11-30T15:52:00.599Z,112.15
2022-11-30T15:54:44.241Z,111.35
2022-11-30T15:57:12.035Z,109.40
2022-11-30T15:59:40.803Z,122.40
2022-11-30T16:02:24.469Z,124.53
2022-11-30T16:05:07.341Z,116.88
2022-11-30T16:07:39.197Z,129.90
2022-11-30T16:10:07.028Z,121.53
2022-11-30T16:12:34.476Z,123.28
2022-11-30T16:15:03.709Z,113.13
2022-11-30T16:17:31.033Z,115.70
2022-11-30T16:19:58.436Z,119.60
2022-11-30T16:22:25.779Z,124.60
2022-11-30T16:24:53.141Z,116.38
2022-11-30T16:27:22.469Z,115.38
2022-11-30T16:29:52.671Z,109.93
2022-11-30T16:32:21.717Z,112.45
2022-11-30T16:34:49.046Z,104.75
2022-11-30T16:37:16.386Z,111.90
2022-11-30T16:39:43.719Z,101.85
2022-11-30T16:42:12.309Z,94.45
2022-11-30T16:44:39.593Z,100.03
2022-11-30T16:47:06.870Z,94.90
2022-11-30T16:49:35.500Z,98.32
2022-11-30T16:52:03.882Z,99.82
2022-11-30T16:54:31.317Z,93.57
2022-11-30T16:56:58.663Z,87.45
2022-11-30T16:59:25.992Z,85.22
2022-11-30T17:01:53.733Z,93.95
2022-11-30T17:04:22.668Z,100.95
2022-11-30T17:06:54.690Z,100.18
2022-11-30T17:09:24.703Z,94.07
2022-11-30T17:11:52.348Z,89.22
2022-11-30T17:14:20.804Z,78.68
2022-11-30T17:16:48.137Z,83.82
2022-11-30T17:19:15.522Z,85.40
2022-11-30T17:21:44.320Z,90.20
2022-11-30T17:24:13.076Z,97.53
2022-11-30T17:26:40.545Z,91.78
2022-11-30T17:29:07.956Z,83.35
2022-11-30T17:31:35.557Z,85.38
2022-11-30T17:34:02.904Z,89.25
2022-11-30T17:36:30.213Z,93.57
2022-11-30T17:38:57.582Z,82.50
2022-11-30T17:41:26.212Z,97.85
2022-11-30T17:43:53.523Z,81.97
2022-11-30T17:46:22.136Z,79.65
2022-11-30T17:48:49.577Z,82.82
2022-11-30T17:51:17.053Z,82.63
2022-11-30T17:53:44.932Z,85.60
2022-11-30T17:56:13.735Z,88.60
2022-11-30T17:58:44.340Z,77.45
2022-11-30T18:01:16.124Z,80.22
2022-11-30T18:03:43.487Z,73.85
2022-11-30T18:06:10.811Z,79.10
2022-11-30T18:08:38.933Z,68.60
2022-11-30T18:11:08.719Z,74.75
2022-11-30T18:13:36.140Z,77.47
2022-11-30T18:16:08.750Z,74.63
2022-11-30T18:18:36.062Z,81.30
2022-11-30T18:21:04.334Z,78.65
2022-11-30T18:23:32.364Z,70.90
2022-11-30T18:25:59.694Z,76.50
2022-11-30T18:28:26.992Z,76.85
2022-11-30T18:30:54.319Z,78.50
2022-11-30T18:33:23.050Z,69.60
2022-11-30T18:35:50.475Z,71.95
2022-11-30T18:38:17.856Z,77.82
2022-11-30T18:40:45.212Z,73.68
2022-11-30T18:43:12.578Z,74.57
2022-11-30T18:45:39.974Z,74.40
2022-11-30T18:48:07.301Z,69.05
2022-11-30T18:50:35.935Z,68.85
2022-11-30T18:53:03.269Z,72.63
2022-11-30T18:55:30.565Z,71.28
2022-11-30T18:57:57.908Z,72.60
2022-11-30T19:00:25.207Z,74.13
2022-11-30T19:02:52.540Z,71.63
2022-11-30T19:05:32.424Z,67.20
2022-11-30T19:08:04.012Z,69.13
2022-11-30T19:10:33.125Z,67.28
2022-11-30T19:13:00.466Z,71.78
2022-11-30T19:15:27.844Z,71.55
2022-11-30T19:17:55.591Z,68.47
2022-11-30T19:20:22.969Z,73.13
2022-11-30T19:22:50.618Z,66.88
2022-11-30T19:25:19.466Z,75.30
2022-11-30T19:27:46.787Z,71.30
2022-11-30T19:30:14.746Z,71.40
2022-11-30T19:32:42.042Z,72.97
2022-11-30T19:35:09.419Z,70.95
2022-11-30T19:37:36.707Z,71.80
2022-11-30T19:40:04.454Z,73.78
2022-11-30T19:42:33.107Z,71.05
2022-11-30T19:45:00.412Z,67.78
2022-11-30T19:47:27.733Z,73.72
2022-11-30T19:49:55.058Z,70.70
2022-11-30T19:52:22.345Z,75.88
2022-11-30T19:54:50.013Z,71.88
2022-11-30T19:57:17.587Z,71.68
2022-11-30T19:59:46.720Z,70.47
2022-11-30T20:02:14.770Z,70.25
2022-11-30T20:04:42.116Z,82.25
2022-11-30T20:07:09.484Z,75.43
2022-11-30T20:09:36.775Z,75.30
2022-11-30T20:12:04.155Z,77.25
2022-11-30T20:14:31.806Z,71.22
2022-11-30T20:17:00.474Z,80.25
2022-11-30T20:19:28.225Z,71.43
2022-11-30T20:21:55.518Z,67.45
2022-11-30T20:24:22.828Z,74.43
2022-11-30T20:26:50.096Z,70.57
2022-11-30T20:29:18.410Z,74.60
2022-11-30T20:31:46.404Z,67.13
2022-11-30T20:34:15.062Z,73.47
2022-11-30T20:36:42.438Z,71.68
2022-11-30T20:39:11.021Z,64.78
2022-11-30T20:41:38.398Z,73.35
2022-11-30T20:44:05.855Z,67.20
2022-11-30T20:46:34.264Z,70.53
2022-11-30T20:49:02.533Z,59.55
2022-11-30T20:51:32.865Z,52.38
2022-11-30T20:54:01.189Z,52.97
2022-11-30T20:56:28.530Z,50.38
2022-11-30T20:58:55.904Z,43.88
2022-11-30T21:01:23.399Z,49.10
2022-11-30T21:03:51.118Z,49.83
2022-11-30T21:06:18.474Z,54.05
2022-11-30T21:08:47.179Z,46.13
2022-11-30T21:11:16.162Z,53.95
2022-11-30T21:13:44.498Z,52.08
2022-11-30T21:16:12.259Z,47.15
2022-11-30T21:18:40.472Z,51.60
2022-11-30T21:21:08.668Z,58.38
2022-11-30T21:23:37.175Z,54.47
2022-11-30T21:26:06.437Z,55.25
2022-11-30T21:28:38.070Z,52.35
2022-11-30T21:31:06.425Z,47.63
2022-11-30T21:33:33.744Z,47.97
2022-11-30T21:36:01.068Z,43.03
2022-11-30T21:38:28.396Z,44.33
2022-11-30T21:40:55.909Z,43.53
2022-11-30T21:43:24.733Z,43.72
2022-11-30T21:45:59.337Z,44.58
2022-11-30T21:48:26.766Z,43.78
2022-11-30T21:51:00.828Z,36.20
2022-11-30T21:53:28.988Z,42.10
2022-11-30T21:55:56.504Z,41.05
2022-11-30T21:58:25.139Z,40.95
2022-11-30T22:00:56.355Z,39.47
2022-11-30T22:03:23.871Z,39.00
2022-11-30T22:06:01.011Z,40.75
2022-11-30T22:08:28.547Z,47.10
2022-11-30T22:10:55.843Z,43.53
2022-11-30T22:13:23.177Z,40.90
2022-11-30T22:15:57.487Z,44.20
2022-11-30T22:18:24.917Z,36.65
2022-11-30T22:20:52.202Z,36.25
2022-11-30T22:23:19.512Z,32.80
2022-11-30T22:25:46.816Z,31.50
2022-11-30T22:28:14.095Z,32.70
2022-11-30T22:30:41.455Z,33.60
2022-11-30T22:33:10.111Z,29.58
2022-11-30T22:35:37.447Z,30.73
2022-11-30T22:38:04.751Z,30.67
2022-11-30T22:40:32.123Z,33.80
2022-11-30T22:42:59.537Z,29.27
2022-11-30T22:45:26.856Z,32.97
2022-11-30T22:47:54.170Z,32.08
2022-11-30T22:50:22.856Z,36.67
2022-11-30T22:53:04.906Z,34.97
2022-11-30T22:55:32.694Z,32.78
2022-11-30T22:58:00.177Z,33.88
2022-11-30T23:00:27.467Z,30.77
2022-11-30T23:02:54.880Z,33.13
2022-11-30T23:05:23.530Z,29.38
2022-11-30T23:07:50.919Z,33.53
2022-11-30T23:10:19.001Z,30.67
2022-11-30T23:13:00.536Z,32.22
2022-11-30T23:15:27.938Z,31.42
2022-11-30T23:17:55.343Z,31.02
2022-11-30T23:20:23.956Z,31.75
2022-11-30T23:22:51.302Z,33.10
2022-11-30T23:25:18.660Z,31.55
2022-11-30T23:27:45.984Z,28.10
2022-11-30T23:30:13.410Z,37.00
2022-11-30T23:32:40.734Z,29.50
2022-11-30T23:35:08.289Z,31.05
2022-11-30T23:37:36.936Z,36.92
2022-11-30T23:40:04.576Z,32.92
2022-11-30T23:42:31.875Z,34.22
2022-11-30T23:45:00.769Z,30.00
2022-11-30T23:47:28.192Z,32.35
2022-11-30T23:49:55.473Z,30.92
2022-11-30T23:52:22.834Z,29.42
2022-11-30T23:54:51.660Z,31.55
2022-11-30T23:57:19.074Z,30.40
2022-11-30T23:59:47.047Z,28.48
